createdAt,value
2023-05-21T00:00:41.967Z,21.12
2023-05-21T00:03:31.521Z,21.13
2023-05-21T00:06:01.933Z,21.15
2023-05-21T00:08:29.940Z,21.09
2023-05-21T00:10:58.261Z,21.06
2023-05-21T00:13:26.027Z,21.06
2023-05-21T00:15:54.284Z,21.10
2023-05-21T00:18:22.487Z,20.94
2023-05-21T00:20:51.257Z,20.91
2023-05-21T00:23:19.536Z,21.11
2023-05-21T00:25:48.263Z,21.07
2023-05-21T00:28:16.290Z,20.91
2023-05-21T00:30:45.039Z,20.97
2023-05-21T00:33:14.124Z,21.00
2023-05-21T00:35:42.472Z,21.18
2023-05-21T00:38:10.346Z,21.00
2023-05-21T00:40:41.451Z,20.96
2023-05-21T00:43:12.384Z,20.89
2023-05-21T00:45:44.987Z,20.85
2023-05-21T00:48:13.646Z,20.85
2023-05-21T00:50:42.329Z,20.92
2023-05-21T00:53:11.212Z,20.91
2023-05-21T00:55:40.287Z,20.96
2023-05-21T00:58:08.761Z,21.02
2023-05-21T01:00:40.891Z,20.91
2023-05-21T01:03:09.352Z,20.96
2023-05-21T01:05:38.020Z,21.13
2023-05-21T01:08:08.017Z,21.09
2023-05-21T01:10:36.282Z,21.14
2023-05-21T01:13:04.245Z,20.91
2023-05-21T01:15:32.686Z,20.96
2023-05-21T01:18:00.663Z,20.95
2023-05-21T01:20:31.092Z,20.66
2023-05-21T01:22:59.685Z,20.57
2023-05-21T01:25:27.890Z,20.50
2023-05-21T01:27:56.322Z,20.24
2023-05-21T01:30:25.145Z,20.35
2023-05-21T01:32:59.108Z,20.40
2023-05-21T01:35:32.782Z,20.41
2023-05-21T01:38:03.509Z,20.23
2023-05-21T01:40:52.430Z,19.82
2023-05-21T01:43:21.193Z,20.28
2023-05-21T01:45:54.453Z,20.25
2023-05-21T01:53:06.541Z,20.20
2023-05-21T01:55:36.301Z,20.19
2023-05-21T01:58:04.528Z,20.11
2023-05-21T02:00:32.869Z,19.82
2023-05-21T02:03:00.925Z,19.52
2023-05-21T02:05:30.587Z,19.61
2023-05-21T02:08:00.242Z,19.93
2023-05-21T02:10:28.403Z,19.85
2023-05-21T02:12:56.238Z,19.76
2023-05-21T02:15:25.113Z,19.92
2023-05-21T02:17:53.322Z,20.06
2023-05-21T02:20:22.908Z,20.13
2023-05-21T02:22:50.684Z,20.09
2023-05-21T02:25:22.285Z,20.07
2023-05-21T02:27:54.025Z,20.03
2023-05-21T02:30:22.328Z,20.12
2023-05-21T02:32:50.997Z,20.11
2023-05-21T02:35:19.177Z,19.95
2023-05-21T02:37:46.914Z,20.06
2023-05-21T02:40:16.701Z,20.20
2023-05-21T02:42:44.466Z,20.30
2023-05-21T02:45:17.472Z,20.38
2023-05-21T02:47:45.604Z,20.53
2023-05-21T02:50:14.146Z,20.33
2023-05-21T02:52:50.774Z,20.39
2023-05-21T02:55:18.963Z,20.37
2023-05-21T02:57:46.765Z,20.47
2023-05-21T03:00:16.379Z,20.43
2023-05-21T03:02:45.673Z,20.53
2023-05-21T03:05:13.993Z,20.52
2023-05-21T03:07:42.675Z,20.63
2023-05-21T03:10:12.114Z,20.37
2023-05-21T03:12:39.932Z,20.59
2023-05-21T03:15:08.658Z,20.42
2023-05-21T03:17:36.599Z,20.24
2023-05-21T03:20:05.510Z,20.43
2023-05-21T03:22:33.578Z,20.66
2023-05-21T03:25:04.871Z,20.58
2023-05-21T03:27:32.890Z,20.62
2023-05-21T03:30:06.822Z,20.47
2023-05-21T03:32:45.481Z,20.53
2023-05-21T03:35:13.718Z,20.56
2023-05-21T03:37:41.607Z,20.43
2023-05-21T03:40:10.872Z,20.41
2023-05-21T03:42:38.792Z,20.48
2023-05-21T03:45:07.706Z,20.46
2023-05-21T03:47:54.485Z,20.53
2023-05-21T03:50:22.739Z,20.44
2023-05-21T03:52:50.701Z,20.48
2023-05-21T03:55:19.108Z,20.54
2023-05-21T03:57:47.058Z,20.58
2023-05-21T04:00:16.805Z,20.61
2023-05-21T04:02:44.524Z,20.67
2023-05-21T04:05:16.800Z,20.69
2023-05-21T04:07:46.696Z,20.83
2023-05-21T04:10:15.138Z,20.70
2023-05-21T04:12:42.893Z,20.77
2023-05-21T04:15:11.303Z,20.75
2023-05-21T04:17:40.693Z,20.62
2023-05-21T04:20:09.177Z,20.61
2023-05-21T04:22:37.469Z,20.82
2023-05-21T04:25:06.367Z,20.57
2023-05-21T04:27:37.861Z,20.70
2023-05-21T04:30:06.762Z,20.74
2023-05-21T04:32:37.163Z,20.79
2023-05-21T04:35:06.077Z,20.90
2023-05-21T04:37:35.364Z,20.85
2023-05-21T04:40:04.474Z,20.65
2023-05-21T04:42:33.299Z,20.84
2023-05-21T04:45:03.058Z,20.78
2023-05-21T04:47:35.719Z,21.02
2023-05-21T04:50:05.920Z,20.84
2023-05-21T04:52:35.255Z,20.87
2023-05-21T04:55:04.088Z,20.82
2023-05-21T04:57:31.920Z,20.91
2023-05-21T05:00:01.385Z,20.82
2023-05-21T05:02:33.312Z,20.98
2023-05-21T05:05:01.677Z,20.89
2023-05-21T05:07:29.527Z,20.81
2023-05-21T05:09:57.736Z,21.11
2023-05-21T05:12:25.723Z,20.93
2023-05-21T05:14:53.826Z,21.16
2023-05-21T05:17:21.610Z,21.22
2023-05-21T05:19:49.782Z,21.23
2023-05-21T05:22:17.542Z,21.36
2023-05-21T05:24:45.793Z,21.28
2023-05-21T05:27:13.590Z,21.23
2023-05-21T05:29:41.831Z,21.32
2023-05-21T05:32:09.593Z,21.15
2023-05-21T05:37:06.925Z,21.07
2023-05-21T05:39:35.240Z,21.03
2023-05-21T05:42:03.721Z,20.88
2023-05-21T05:44:31.869Z,20.86
2023-05-21T05:47:00.303Z,20.75
2023-05-21T05:49:29.967Z,20.85
2023-05-21T05:51:57.859Z,20.92
2023-05-21T05:54:26.059Z,21.09
2023-05-21T05:56:53.829Z,21.16
2023-05-21T05:59:22.277Z,21.10
2023-05-21T06:01:52.080Z,21.28
2023-05-21T06:04:20.242Z,21.55
2023-05-21T06:06:48.980Z,21.63
2023-05-21T06:09:17.101Z,21.54
2023-05-21T06:11:44.954Z,21.63
2023-05-21T06:14:13.410Z,21.83
2023-05-21T06:16:41.535Z,21.67
2023-05-21T06:19:09.949Z,21.89
2023-05-21T06:21:38.257Z,22.05
2023-05-21T06:24:08.384Z,22.10
2023-05-21T06:26:36.442Z,21.83
2023-05-21T06:29:05.357Z,22.01
2023-05-21T06:31:33.416Z,21.88
2023-05-21T06:34:01.858Z,22.04
2023-05-21T06:36:30.386Z,22.09
2023-05-21T06:38:59.440Z,22.37
2023-05-21T06:41:28.623Z,22.50
2023-05-21T06:44:00.538Z,22.76
2023-05-21T06:47:00.207Z,22.93
2023-05-21T06:49:28.366Z,22.92
2023-05-21T06:51:56.199Z,23.12
2023-05-21T06:54:26.672Z,23.18
2023-05-21T06:56:55.428Z,23.26
2023-05-21T06:59:23.582Z,23.41
2023-05-21T07:01:51.421Z,23.79
2023-05-21T07:04:19.597Z,24.04
2023-05-21T07:06:48.693Z,24.33
2023-05-21T07:09:18.778Z,24.45
2023-05-21T07:11:47.981Z,24.53
2023-05-21T07:14:18.036Z,24.41
2023-05-21T07:16:46.021Z,24.75
2023-05-21T07:19:15.584Z,24.63
2023-05-21T07:21:44.705Z,25.17
2023-05-21T07:24:13.075Z,25.70
2023-05-21T07:26:42.623Z,26.13
2023-05-21T07:29:12.720Z,26.14
2023-05-21T07:31:40.799Z,26.04
2023-05-21T07:34:08.972Z,26.40
2023-05-21T07:36:37.169Z,26.46
2023-05-21T07:39:05.548Z,25.74
2023-05-21T07:41:33.874Z,25.99
2023-05-21T07:44:06.532Z,26.35
2023-05-21T07:46:38.205Z,26.14
2023-05-21T07:49:07.015Z,26.28
2023-05-21T07:51:34.954Z,26.26
2023-05-21T07:54:04.389Z,26.00
2023-05-21T07:56:36.288Z,25.05
2023-05-21T07:59:06.072Z,25.20
2023-05-21T08:01:33.969Z,25.31
2023-05-21T08:04:05.844Z,25.83
2023-05-21T08:06:40.313Z,26.41
2023-05-21T08:09:08.749Z,26.16
2023-05-21T08:11:36.780Z,26.32
2023-05-21T08:14:04.950Z,26.51
2023-05-21T08:16:33.029Z,26.60
2023-05-21T08:19:01.276Z,27.02
2023-05-21T08:21:29.270Z,26.53
2023-05-21T08:23:57.739Z,26.91
2023-05-21T08:26:26.407Z,26.68
2023-05-21T08:28:54.610Z,27.01
2023-05-21T08:31:22.527Z,26.94
2023-05-21T08:33:56.707Z,27.40
2023-05-21T08:36:36.888Z,27.42
2023-05-21T08:39:11.572Z,27.63
2023-05-21T08:41:49.980Z,27.91
2023-05-21T08:44:22.738Z,28.08
2023-05-21T08:46:52.168Z,28.18
2023-05-21T08:49:27.596Z,28.35
2023-05-21T08:51:56.807Z,28.57
2023-05-21T08:54:28.246Z,28.86
2023-05-21T08:56:58.765Z,29.26
2023-05-21T08:59:27.459Z,29.08
2023-05-21T09:01:57.949Z,29.01
2023-05-21T09:04:34.432Z,28.98
2023-05-21T09:07:03.161Z,29.03
2023-05-21T09:09:57.831Z,29.00
2023-05-21T09:12:27.930Z,29.43
2023-05-21T09:14:58.709Z,29.59
2023-05-21T09:17:31.339Z,29.40
2023-05-21T09:20:14.952Z,29.43
2023-05-21T09:22:56.294Z,29.42
2023-05-21T09:25:28.393Z,29.49
2023-05-21T09:27:59.455Z,29.46
2023-05-21T09:30:30.197Z,29.78
2023-05-21T09:33:00.641Z,29.94
2023-05-21T09:35:29.645Z,30.00
2023-05-21T09:37:57.760Z,30.03
2023-05-21T09:40:26.316Z,29.94
2023-05-21T09:42:55.395Z,29.94
2023-05-21T09:45:27.677Z,30.02
2023-05-21T09:47:58.552Z,30.20
2023-05-21T09:50:31.984Z,30.11
2023-05-21T09:52:59.990Z,30.01
2023-05-21T09:55:28.983Z,30.15
2023-05-21T09:57:59.276Z,30.00
2023-05-21T10:00:30.515Z,30.20
2023-05-21T10:03:01.968Z,30.47
2023-05-21T10:05:31.106Z,30.59
2023-05-21T10:08:04.272Z,30.77
2023-05-21T10:10:32.995Z,30.33
2023-05-21T10:13:07.224Z,30.64
2023-05-21T10:15:46.480Z,30.59
2023-05-21T10:18:16.676Z,30.46
2023-05-21T10:20:46.714Z,30.38
2023-05-21T10:23:14.746Z,30.93
2023-05-21T10:25:43.264Z,31.00
2023-05-21T10:28:16.317Z,31.05
2023-05-21T10:30:45.084Z,31.22
2023-05-21T10:33:17.009Z,31.22
2023-05-21T10:35:47.482Z,31.07
2023-05-21T10:38:18.863Z,30.94
2023-05-21T10:40:50.484Z,30.05
2023-05-21T10:43:42.807Z,30.38
2023-05-21T10:46:55.471Z,30.58
2023-05-21T10:49:55.102Z,30.30
2023-05-21T10:53:00.552Z,30.45
2023-05-21T10:55:50.417Z,30.88
2023-05-21T10:58:37.396Z,30.60
2023-05-21T11:01:07.202Z,30.56
2023-05-21T11:03:37.707Z,30.70
2023-05-21T11:06:06.669Z,31.02
2023-05-21T11:08:36.394Z,31.49
2023-05-21T11:11:05.690Z,31.62
2023-05-21T11:13:49.800Z,31.32
2023-05-21T11:16:18.414Z,31.61
2023-05-21T11:18:46.798Z,32.06
2023-05-21T11:21:17.239Z,31.98
2023-05-21T11:23:51.668Z,31.97
2023-05-21T11:26:55.431Z,32.06
2023-05-21T11:29:33.914Z,32.08
2023-05-21T11:32:03.261Z,32.37
2023-05-21T11:34:46.103Z,32.59
2023-05-21T11:37:17.291Z,32.39
2023-05-21T11:39:45.906Z,32.58
2023-05-21T11:42:27.876Z,32.80
2023-05-21T11:45:01.152Z,33.02
2023-05-21T11:47:30.418Z,32.86
2023-05-21T11:50:01.528Z,32.86
2023-05-21T11:52:31.277Z,33.41
2023-05-21T11:55:00.194Z,32.85
2023-05-21T11:57:32.852Z,32.70
2023-05-21T12:00:02.614Z,31.47
2023-05-21T12:02:46.634Z,32.26
2023-05-21T12:05:15.370Z,32.07
2023-05-21T12:07:46.534Z,33.12
2023-05-21T12:10:14.932Z,32.89
2023-05-21T12:12:54.090Z,32.87
2023-05-21T12:15:26.444Z,33.09
2023-05-21T12:17:55.613Z,33.53
2023-05-21T12:20:26.541Z,33.47
2023-05-21T12:22:54.714Z,34.06
2023-05-21T12:25:23.337Z,34.59
2023-05-21T12:27:58.385Z,34.15
2023-05-21T12:30:27.456Z,33.68
2023-05-21T12:32:58.716Z,32.80
2023-05-21T12:35:27.291Z,32.67
2023-05-21T12:37:55.408Z,32.09
2023-05-21T12:40:37.496Z,33.63
2023-05-21T12:43:06.372Z,34.18
2023-05-21T12:45:35.074Z,33.58
2023-05-21T12:48:03.684Z,32.98
2023-05-21T12:50:33.382Z,33.90
2023-05-21T12:53:01.473Z,34.36
2023-05-21T12:55:31.770Z,33.84
2023-05-21T12:58:05.831Z,32.97
2023-05-21T13:00:35.245Z,33.76
2023-05-21T13:03:04.901Z,34.19
2023-05-21T13:05:33.583Z,34.00
2023-05-21T13:08:01.963Z,33.79
2023-05-21T13:10:30.384Z,34.24
2023-05-21T13:12:58.513Z,33.58
2023-05-21T13:15:27.299Z,32.79
2023-05-21T13:17:56.936Z,32.82
2023-05-21T13:20:27.797Z,33.85
2023-05-21T13:22:56.364Z,34.81
2023-05-21T13:25:32.915Z,33.96
2023-05-21T13:28:10.484Z,34.19
2023-05-21T13:30:39.303Z,33.77
2023-05-21T13:33:07.691Z,33.97
2023-05-21T13:35:36.466Z,33.14
2023-05-21T13:38:04.645Z,32.73
2023-05-21T13:40:33.282Z,32.40
2023-05-21T13:43:01.423Z,32.51
2023-05-21T13:45:29.891Z,32.44
2023-05-21T13:47:58.425Z,33.78
2023-05-21T13:50:27.110Z,33.48
2023-05-21T13:52:55.153Z,33.48
2023-05-21T13:55:23.629Z,33.49
2023-05-21T13:57:51.829Z,33.47
2023-05-21T14:00:20.242Z,33.54
2023-05-21T14:02:48.753Z,33.77
2023-05-21T14:05:19.293Z,33.55
2023-05-21T14:07:48.860Z,34.34
2023-05-21T14:10:17.471Z,34.28
2023-05-21T14:12:46.482Z,33.72
2023-05-21T14:15:15.237Z,33.30
2023-05-21T14:17:43.409Z,34.12
2023-05-21T14:20:12.412Z,32.89
2023-05-21T14:22:40.594Z,33.41
2023-05-21T14:25:09.532Z,32.56
2023-05-21T14:27:38.508Z,33.39
2023-05-21T14:30:07.790Z,33.81
2023-05-21T14:32:36.042Z,34.70
2023-05-21T14:35:05.231Z,34.88
2023-05-21T14:37:33.390Z,34.30
2023-05-21T14:40:02.128Z,34.02
2023-05-21T14:42:30.773Z,34.51
2023-05-21T14:44:59.503Z,34.65
2023-05-21T14:47:27.660Z,35.04
2023-05-21T14:49:56.075Z,34.60
2023-05-21T14:52:24.246Z,34.10
2023-05-21T14:54:52.640Z,34.57
2023-05-21T14:57:21.328Z,34.61
2023-05-21T14:59:49.829Z,34.87
2023-05-21T15:02:18.035Z,34.86
2023-05-21T15:04:46.546Z,34.81
2023-05-21T15:07:14.746Z,34.90
2023-05-21T15:09:43.375Z,34.55
2023-05-21T15:12:11.376Z,34.88
2023-05-21T15:14:41.213Z,34.03
2023-05-21T15:17:09.058Z,33.84
2023-05-21T15:19:37.343Z,33.35
2023-05-21T15:22:05.180Z,33.40
2023-05-21T15:24:33.449Z,33.09
2023-05-21T15:27:01.383Z,32.59
2023-05-21T15:29:29.655Z,31.77
2023-05-21T15:31:57.518Z,31.89
2023-05-21T15:34:26.126Z,32.77
2023-05-21T15:36:54.296Z,33.02
2023-05-21T15:39:22.448Z,33.80
2023-05-21T15:41:50.427Z,33.69
2023-05-21T15:44:18.595Z,33.70
2023-05-21T15:46:46.585Z,32.94
2023-05-21T15:49:14.966Z,33.18
2023-05-21T15:51:44.657Z,32.67
2023-05-21T15:54:14.090Z,32.78
2023-05-21T15:56:44.704Z,33.30
2023-05-21T15:59:14.229Z,33.40
2023-05-21T16:01:42.528Z,33.55
2023-05-21T16:04:10.865Z,33.77
2023-05-21T16:06:39.108Z,33.12
2023-05-21T16:09:07.286Z,33.09
2023-05-21T16:11:35.818Z,32.45
2023-05-21T16:14:04.015Z,32.68
2023-05-21T16:16:32.130Z,32.83
2023-05-21T16:19:02.056Z,33.09
2023-05-21T16:21:29.968Z,33.07
2023-05-21T16:23:58.125Z,33.07
2023-05-21T16:26:26.331Z,33.01
2023-05-21T16:28:55.024Z,31.92
2023-05-21T16:31:23.196Z,31.67
2023-05-21T16:33:51.656Z,32.03
2023-05-21T16:36:19.493Z,31.89
2023-05-21T16:38:47.626Z,32.19
2023-05-21T16:41:15.825Z,31.75
2023-05-21T16:43:44.566Z,31.50
2023-05-21T16:46:12.640Z,31.62
2023-05-21T16:48:42.120Z,31.00
2023-05-21T16:51:10.207Z,30.65
2023-05-21T16:53:38.807Z,30.80
2023-05-21T16:56:07.085Z,30.64
2023-05-21T16:58:36.474Z,30.84
2023-05-21T17:01:04.521Z,31.14
2023-05-21T17:03:33.107Z,31.48
2023-05-21T17:06:01.119Z,31.33
2023-05-21T17:08:29.526Z,31.01
2023-05-21T17:10:57.425Z,31.10
2023-05-21T17:13:26.102Z,31.00
2023-05-21T17:15:54.260Z,31.18
2023-05-21T17:18:22.455Z,31.18
2023-05-21T17:20:50.651Z,31.25
2023-05-21T17:23:19.347Z,31.35
2023-05-21T17:25:47.356Z,31.23
2023-05-21T17:28:17.190Z,30.94
2023-05-21T17:30:46.358Z,30.61
2023-05-21T17:33:15.962Z,30.06
2023-05-21T17:35:43.984Z,30.09
2023-05-21T17:38:12.117Z,30.47
2023-05-21T17:40:40.424Z,30.75
2023-05-21T17:43:08.767Z,30.81
2023-05-21T17:45:36.752Z,30.41
2023-05-21T17:48:05.665Z,30.64
2023-05-21T17:50:34.470Z,30.59
2023-05-21T17:53:03.037Z,30.49
2023-05-21T17:55:30.823Z,30.61
2023-05-21T17:57:59.404Z,30.54
2023-05-21T18:00:27.336Z,30.43
2023-05-21T18:02:55.615Z,30.32
2023-05-21T18:05:24.096Z,30.33
2023-05-21T18:07:52.315Z,30.19
2023-05-21T18:10:20.574Z,30.24
2023-05-21T18:12:48.714Z,30.10
2023-05-21T18:15:16.550Z,29.82
2023-05-21T18:17:45.091Z,29.82
2023-05-21T18:20:13.855Z,29.80
2023-05-21T18:22:42.041Z,29.52
2023-05-21T18:25:10.226Z,29.55
2023-05-21T18:27:38.606Z,29.48
2023-05-21T18:30:07.230Z,29.45
2023-05-21T18:32:38.901Z,29.39
2023-05-21T18:35:08.218Z,29.28
2023-05-21T18:37:37.491Z,29.21
2023-05-21T18:40:06.211Z,29.15
2023-05-21T18:42:34.672Z,29.32
2023-05-21T18:45:10.535Z,29.07
2023-05-21T18:47:40.592Z,29.03
2023-05-21T18:50:14.084Z,29.10
2023-05-21T18:52:42.368Z,29.11
2023-05-21T18:55:10.537Z,28.88
2023-05-21T18:57:39.878Z,28.86
2023-05-21T19:00:09.863Z,28.70
2023-05-21T19:02:39.967Z,28.76
2023-05-21T19:05:08.208Z,28.60
2023-05-21T19:07:36.694Z,28.70
2023-05-21T19:10:05.094Z,28.55
2023-05-21T19:12:36.399Z,28.38
2023-05-21T19:15:05.121Z,28.26
2023-05-21T19:17:35.572Z,28.17
2023-05-21T19:20:05.678Z,28.12
2023-05-21T19:22:37.825Z,28.01
2023-05-21T19:25:06.466Z,28.05
2023-05-21T19:27:34.852Z,28.02
2023-05-21T19:30:02.867Z,27.91
2023-05-21T19:32:31.703Z,27.71
2023-05-21T19:34:59.696Z,27.73
2023-05-21T19:37:28.304Z,27.52
2023-05-21T19:39:56.415Z,27.46
2023-05-21T19:42:24.676Z,27.48
2023-05-21T19:44:52.636Z,27.48
2023-05-21T19:47:21.294Z,27.19
2023-05-21T19:49:49.333Z,27.20
2023-05-21T19:52:17.783Z,27.18
2023-05-21T19:54:45.939Z,27.14
2023-05-21T19:57:14.263Z,27.23
2023-05-21T19:59:42.262Z,27.21
2023-05-21T20:02:17.179Z,27.18
2023-05-21T20:04:45.638Z,27.04
2023-05-21T20:07:15.016Z,27.00
2023-05-21T20:09:43.205Z,26.83
2023-05-21T20:12:11.971Z,27.02
2023-05-21T20:14:40.094Z,26.83
2023-05-21T20:17:08.976Z,26.89
2023-05-21T20:19:38.083Z,26.81
2023-05-21T20:22:07.000Z,26.73
2023-05-21T20:24:35.112Z,26.59
2023-05-21T20:27:03.893Z,26.46
2023-05-21T20:29:33.063Z,26.45
2023-05-21T20:32:01.355Z,26.60
2023-05-21T20:34:30.038Z,26.52
2023-05-21T20:36:58.609Z,26.44
2023-05-21T20:39:30.067Z,26.35
2023-05-21T20:42:00.098Z,26.36
2023-05-21T20:44:29.311Z,26.40
2023-05-21T20:46:57.589Z,26.37
2023-05-21T20:49:26.057Z,26.29
2023-05-21T20:51:54.705Z,26.28
2023-05-21T20:54:22.669Z,26.34
2023-05-21T20:56:51.038Z,26.15
2023-05-21T20:59:19.140Z,26.08
2023-05-21T21:01:47.548Z,26.10
2023-05-21T21:04:16.341Z,26.05
2023-05-21T21:06:46.786Z,26.03
2023-05-21T21:09:14.759Z,26.10
2023-05-21T21:11:43.067Z,25.98
2023-05-21T21:14:11.190Z,25.99
2023-05-21T21:16:39.531Z,25.84
2023-05-21T21:19:07.577Z,25.96
2023-05-21T21:21:36.320Z,26.09
2023-05-21T21:24:04.608Z,26.25
2023-05-21T21:26:32.870Z,26.11
2023-05-21T21:29:01.484Z,26.22
2023-05-21T21:31:30.191Z,25.98
2023-05-21T21:33:58.476Z,25.99
2023-05-21T21:36:26.451Z,26.15
2023-05-21T21:38:55.722Z,26.11
2023-05-21T21:41:23.882Z,26.09
2023-05-21T21:43:52.594Z,26.04
2023-05-21T21:46:20.913Z,25.74
2023-05-21T21:48:49.168Z,26.00
2023-05-21T21:51:17.294Z,25.90
2023-05-21T21:53:45.543Z,26.09
2023-05-21T21:56:13.418Z,25.70
2023-05-21T21:58:41.815Z,25.72
2023-05-21T22:01:09.877Z,25.58
2023-05-21T22:03:38.184Z,25.58
2023-05-21T22:06:06.342Z,25.74
2023-05-21T22:08:34.595Z,25.67
2023-05-21T22:11:03.496Z,25.59
2023-05-21T22:13:31.696Z,25.69
2023-05-21T22:15:59.613Z,25.61
2023-05-21T22:18:40.331Z,25.54
2023-05-21T22:21:14.496Z,25.49
2023-05-21T22:23:42.996Z,25.61
2023-05-21T22:26:11.005Z,25.59
2023-05-21T22:28:39.333Z,25.55
2023-05-21T22:31:08.018Z,25.50
2023-05-21T22:33:36.927Z,25.53
2023-05-21T22:36:05.391Z,25.40
2023-05-21T22:38:33.943Z,25.19
2023-05-21T22:41:02.141Z,25.34
2023-05-21T22:43:30.607Z,25.23
2023-05-21T22:45:58.828Z,25.28
2023-05-21T22:48:27.107Z,25.15
2023-05-21T22:50:55.007Z,25.17
2023-05-21T22:53:23.767Z,25.20
2023-05-21T22:55:51.719Z,25.15
2023-05-21T22:58:20.078Z,25.22
2023-05-21T23:00:48.355Z,25.22
2023-05-21T23:03:16.968Z,25.49
2023-05-21T23:05:45.454Z,25.31
2023-05-21T23:08:14.376Z,25.53
2023-05-21T23:10:42.723Z,25.44
2023-05-21T23:13:13.051Z,25.44
2023-05-21T23:15:44.124Z,25.36
2023-05-21T23:18:12.912Z,25.48
2023-05-21T23:20:41.644Z,25.70
2023-05-21T23:23:11.188Z,25.88
2023-05-21T23:25:39.625Z,25.81
2023-05-21T23:28:08.025Z,26.00
2023-05-21T23:30:36.245Z,25.98
2023-05-21T23:33:05.202Z,25.79
2023-05-21T23:35:33.448Z,25.93
2023-05-21T23:38:02.071Z,25.91
2023-05-21T23:40:30.155Z,26.06
2023-05-21T23:42:58.957Z,26.12
2023-05-21T23:45:27.092Z,26.08
2023-05-21T23:47:55.808Z,26.26
2023-05-21T23:50:24.982Z,26.18
2023-05-21T23:52:53.957Z,26.24
2023-05-21T23:55:22.085Z,26.26
2023-05-21T23:57:50.704Z,26.04
